createdAt,value
2018-02-14T00:00:52.404Z,1016.67
2018-02-14T00:01:52.410Z,1016.67
2018-02-14T00:02:52.440Z,1016.66
2018-02-14T00:03:52.443Z,1016.67
2018-02-14T00:04:52.417Z,1016.67
2018-02-14T00:05:52.402Z,1016.67
2018-02-14T00:06:52.411Z,1016.71
2018-02-14T00:07:52.444Z,1016.67
2018-02-14T00:08:52.454Z,1016.65
2018-02-14T00:09:52.427Z,1016.64
2018-02-14T00:10:52.430Z,1016.63
2018-02-14T00:11:52.430Z,1016.65
2018-02-14T00:12:52.429Z,1016.66
2018-02-14T00:13:52.459Z,1016.68
2018-02-14T00:14:52.446Z,1016.68
2018-02-14T00:15:52.436Z,1016.7
2018-02-14T00:16:52.442Z,1016.73
2018-02-14T00:17:52.446Z,1016.71
2018-02-14T00:18:52.831Z,1016.69
2018-02-14T00:19:52.439Z,1016.69
2018-02-14T00:20:52.453Z,1016.7
2018-02-14T00:21:52.456Z,1016.67
2018-02-14T00:22:52.447Z,1016.69
2018-02-14T00:23:52.473Z,1016.71
2018-02-14T00:24:52.496Z,1016.7
2018-02-14T00:25:52.465Z,1016.72
2018-02-14T00:26:52.472Z,1016.73
2018-02-14T00:27:52.472Z,1016.73
2018-02-14T00:28:52.486Z,1016.69
2018-02-14T00:29:52.466Z,1016.72
2018-02-14T00:30:52.468Z,1016.77
2018-02-14T00:31:52.473Z,1016.79
2018-02-14T00:32:52.488Z,1016.78
2018-02-14T00:33:52.512Z,1016.77
2018-02-14T00:34:52.495Z,1016.79
2018-02-14T00:35:52.478Z,1016.76
2018-02-14T00:36:52.491Z,1016.78
2018-02-14T00:37:52.492Z,1016.79
2018-02-14T00:38:52.515Z,1016.82
2018-02-14T00:39:52.495Z,1016.82
2018-02-14T00:40:52.497Z,1016.84
2018-02-14T00:41:52.506Z,1016.85
2018-02-14T00:42:52.517Z,1016.84
2018-02-14T00:43:52.496Z,1016.83
2018-02-14T00:44:52.526Z,1016.84
2018-02-14T00:45:52.496Z,1016.89
2018-02-14T00:46:52.506Z,1016.86
2018-02-14T00:47:52.505Z,1016.83
2018-02-14T00:48:52.518Z,1016.83
2018-02-14T00:49:52.493Z,1016.83
2018-02-14T00:50:52.497Z,1016.84
2018-02-14T00:51:52.508Z,1016.82
2018-02-14T00:52:52.504Z,1016.88
2018-02-14T00:53:52.556Z,1016.84
2018-02-14T00:54:52.520Z,1016.87
2018-02-14T00:55:52.518Z,1016.85
2018-02-14T00:56:52.528Z,1016.86
2018-02-14T00:57:52.528Z,1016.87
2018-02-14T00:58:52.526Z,1016.85
2018-02-14T00:59:52.537Z,1016.89
2018-02-14T01:00:52.539Z,1016.86
2018-02-14T01:01:52.540Z,1016.84
2018-02-14T01:02:52.543Z,1016.89
2018-02-14T01:03:52.557Z,1016.93
2018-02-14T01:04:52.547Z,1016.91
2018-02-14T01:05:52.555Z,1016.86
2018-02-14T01:06:52.545Z,1016.88
2018-02-14T01:07:52.550Z,1016.9
2018-02-14T01:08:52.595Z,1016.94
2018-02-14T01:09:52.560Z,1016.9
2018-02-14T01:10:52.556Z,1016.88
2018-02-14T01:11:52.562Z,1016.92
2018-02-14T01:12:52.563Z,1016.94
2018-02-14T01:13:52.585Z,1016.95
2018-02-14T01:14:52.592Z,1016.94
2018-02-14T01:15:52.569Z,1016.93
2018-02-14T01:16:52.573Z,1016.97
2018-02-14T01:17:52.689Z,1016.96
2018-02-14T01:18:52.574Z,1016.98
2018-02-14T01:19:52.587Z,1016.97
2018-02-14T01:20:52.586Z,1016.96
2018-02-14T01:21:52.596Z,1016.98
2018-02-14T01:22:52.612Z,1016.97
2018-02-14T01:23:52.619Z,1017
2018-02-14T01:24:52.611Z,1017.01
2018-02-14T01:25:52.591Z,1017.03
2018-02-14T01:26:52.602Z,1016.99
2018-02-14T01:27:52.587Z,1017
2018-02-14T01:28:52.611Z,1017
2018-02-14T01:29:52.598Z,1017
2018-02-14T01:30:52.624Z,1017
2018-02-14T01:31:52.604Z,1017.01
2018-02-14T01:32:52.596Z,1017.01
2018-02-14T01:33:52.600Z,1017.01
2018-02-14T01:34:52.950Z,1017.03
2018-02-14T01:35:52.614Z,1017.04
2018-02-14T01:36:52.622Z,1017.03
2018-02-14T01:37:52.620Z,1017.1
2018-02-14T01:38:52.620Z,1017.06
2018-02-14T01:39:52.643Z,1017.1
2018-02-14T01:40:52.901Z,1017.15
2018-02-14T01:41:52.628Z,1017.14
2018-02-14T01:42:52.638Z,1017.17
2018-02-14T01:43:52.639Z,1017.16
2018-02-14T01:44:52.644Z,1017.13
2018-02-14T01:45:52.669Z,1017.11
2018-02-14T01:46:52.772Z,1017.17
2018-02-14T01:47:52.646Z,1017.16
2018-02-14T01:48:52.645Z,1017.13
2018-02-14T01:49:52.653Z,1017.11
2018-02-14T01:50:52.663Z,1017.1
2018-02-14T01:51:52.678Z,1017.15
2018-02-14T01:52:52.697Z,1017.1
2018-02-14T01:53:52.669Z,1017.14
2018-02-14T01:54:52.666Z,1017.19
2018-02-14T01:55:52.669Z,1017.19
2018-02-14T01:56:52.682Z,1017.26
2018-02-14T01:57:52.685Z,1017.29
2018-02-14T01:58:52.688Z,1017.29
2018-02-14T01:59:52.675Z,1017.29
2018-02-14T02:00:52.669Z,1017.33
2018-02-14T02:01:52.683Z,1017.35
2018-02-14T02:02:52.714Z,1017.29
2018-02-14T02:03:52.726Z,1017.35
2018-02-14T02:04:52.709Z,1017.33
2018-02-14T02:05:52.700Z,1017.37
2018-02-14T02:06:52.695Z,1017.33
2018-02-14T02:07:52.695Z,1017.39
2018-02-14T02:08:52.836Z,1017.38
2018-02-14T02:09:52.715Z,1017.35
2018-02-14T02:10:52.710Z,1017.37
2018-02-14T02:11:52.718Z,1017.38
2018-02-14T02:12:52.713Z,1017.39
2018-02-14T02:13:52.748Z,1017.37
2018-02-14T02:14:52.722Z,1017.41
2018-02-14T02:15:52.734Z,1017.4
2018-02-14T02:16:52.736Z,1017.4
2018-02-14T02:17:52.740Z,1017.37
2018-02-14T02:18:52.747Z,1017.42
2018-02-14T02:19:52.877Z,1017.41
2018-02-14T02:20:52.756Z,1017.4
2018-02-14T02:21:52.744Z,1017.41
2018-02-14T02:22:52.763Z,1017.4
2018-02-14T02:23:52.760Z,1017.41
2018-02-14T02:24:52.786Z,1017.4
2018-02-14T02:25:52.779Z,1017.44
2018-02-14T02:26:52.781Z,1017.4
2018-02-14T02:27:52.786Z,1017.41
2018-02-14T02:28:52.777Z,1017.44
2018-02-14T02:29:52.781Z,1017.41
2018-02-14T02:30:52.817Z,1017.43
2018-02-14T02:31:52.784Z,1017.44
2018-02-14T02:32:52.788Z,1017.45
2018-02-14T02:33:52.797Z,1017.46
2018-02-14T02:34:52.803Z,1017.5
2018-02-14T02:35:52.979Z,1017.47
2018-02-14T02:36:52.828Z,1017.45
2018-02-14T02:37:52.805Z,1017.46
2018-02-14T02:38:52.810Z,1017.48
2018-02-14T02:39:52.817Z,1017.49
2018-02-14T02:40:52.843Z,1017.52
2018-02-14T02:41:52.812Z,1017.48
2018-02-14T02:42:52.815Z,1017.48
2018-02-14T02:43:52.822Z,1017.52
2018-02-14T02:44:52.824Z,1017.5
2018-02-14T02:45:52.845Z,1017.5
2018-02-14T02:46:52.849Z,1017.54
2018-02-14T02:47:52.827Z,1017.55
2018-02-14T02:48:52.822Z,1017.51
2018-02-14T02:49:52.838Z,1017.55
2018-02-14T02:50:52.859Z,1017.57
2018-02-14T02:51:52.863Z,1017.52
2018-02-14T02:52:52.863Z,1017.5
2018-02-14T02:53:52.859Z,1017.54
2018-02-14T02:54:52.870Z,1017.56
2018-02-14T02:55:52.860Z,1017.55
2018-02-14T02:56:52.846Z,1017.59
2018-02-14T02:57:52.859Z,1017.57
2018-02-14T02:58:52.858Z,1017.57
2018-02-14T02:59:52.856Z,1017.59
2018-02-14T03:00:52.856Z,1017.6
2018-02-14T03:01:53.148Z,1017.56
2018-02-14T03:02:52.870Z,1017.62
2018-02-14T03:03:52.867Z,1017.67
2018-02-14T03:04:52.873Z,1017.68
2018-02-14T03:05:52.881Z,1017.66
2018-02-14T03:06:52.959Z,1017.73
2018-02-14T03:07:52.888Z,1017.67
2018-02-14T03:08:52.876Z,1017.7
2018-02-14T03:09:52.901Z,1017.71
2018-02-14T03:10:52.885Z,1017.7
2018-02-14T03:11:52.893Z,1017.71
2018-02-14T03:12:52.891Z,1017.71
2018-02-14T03:13:52.904Z,1017.68
2018-02-14T03:14:52.914Z,1017.67
2018-02-14T03:15:52.904Z,1017.68
2018-02-14T03:16:52.903Z,1017.69
2018-02-14T03:17:52.910Z,1017.7
2018-02-14T03:18:52.926Z,1017.67
2018-02-14T03:19:52.945Z,1017.72
2018-02-14T03:20:52.912Z,1017.76
2018-02-14T03:21:52.924Z,1017.7
2018-02-14T03:22:52.923Z,1017.72
2018-02-14T03:23:52.926Z,1017.7
2018-02-14T03:24:52.945Z,1017.75
2018-02-14T03:25:52.954Z,1017.76
2018-02-14T03:26:52.930Z,1017.78
2018-02-14T03:27:52.937Z,1017.75
2018-02-14T03:28:52.938Z,1017.77
2018-02-14T03:29:52.956Z,1017.79
2018-02-14T03:30:52.972Z,1017.77
2018-02-14T03:31:52.936Z,1017.75
2018-02-14T03:32:52.946Z,1017.77
2018-02-14T03:33:52.951Z,1017.82
2018-02-14T03:34:52.950Z,1017.78
2018-02-14T03:35:52.982Z,1017.81
2018-02-14T03:36:52.956Z,1017.83
2018-02-14T03:37:52.968Z,1017.85
2018-02-14T03:38:52.970Z,1017.84
2018-02-14T03:39:52.968Z,1017.87
2018-02-14T03:40:52.993Z,1017.9
2018-02-14T03:41:52.996Z,1017.86
2018-02-14T03:42:52.989Z,1017.87
2018-02-14T03:43:52.993Z,1017.9
2018-02-14T03:44:52.991Z,1017.91
2018-02-14T03:45:53.006Z,1017.94
2018-02-14T03:46:53.016Z,1017.9
2018-02-14T03:47:53.028Z,1017.93
2018-02-14T03:48:53.016Z,1017.99
2018-02-14T03:49:53.013Z,1017.97
2018-02-14T03:50:53.012Z,1018
2018-02-14T03:51:53.014Z,1018.01
2018-02-14T03:52:53.017Z,1018.03
2018-02-14T03:53:53.025Z,1018
2018-02-14T03:54:53.014Z,1018.04
2018-02-14T03:55:53.032Z,1018.02
2018-02-14T03:56:53.046Z,1018.06
2018-02-14T03:57:53.027Z,1018.11
2018-02-14T03:58:53.026Z,1018.14
2018-02-14T03:59:53.026Z,1018.11
2018-02-14T04:00:53.023Z,1018.14
2018-02-14T04:01:53.056Z,1018.16
2018-02-14T04:02:53.027Z,1018.2
2018-02-14T04:03:53.036Z,1018.18
2018-02-14T04:04:53.039Z,1018.2
2018-02-14T04:05:53.060Z,1018.22
2018-02-14T04:06:53.052Z,1018.22
2018-02-14T04:07:53.070Z,1018.19
2018-02-14T04:08:53.063Z,1018.2
2018-02-14T04:09:53.076Z,1018.2
2018-02-14T04:10:53.062Z,1018.15
2018-02-14T04:11:53.423Z,1018.21
2018-02-14T04:12:53.076Z,1018.23
2018-02-14T04:13:53.087Z,1018.26
2018-02-14T04:14:53.077Z,1018.26
2018-02-14T04:15:53.079Z,1018.25
2018-02-14T04:16:53.097Z,1018.33
2018-02-14T04:17:53.108Z,1018.34
2018-02-14T04:18:53.088Z,1018.37
2018-02-14T04:19:53.090Z,1018.34
2018-02-14T04:20:53.084Z,1018.37
2018-02-14T04:21:53.121Z,1018.38
2018-02-14T04:22:53.117Z,1018.35
2018-02-14T04:23:53.094Z,1018.42
2018-02-14T04:24:53.099Z,1018.36
2018-02-14T04:25:53.100Z,1018.34
2018-02-14T04:26:53.097Z,1018.37
2018-02-14T04:27:53.101Z,1018.4
2018-02-14T04:28:53.108Z,1018.4
2018-02-14T04:29:53.117Z,1018.42
2018-02-14T04:30:53.113Z,1018.44
2018-02-14T04:31:53.120Z,1018.44
2018-02-14T04:32:53.141Z,1018.46
2018-02-14T04:33:53.127Z,1018.47
2018-02-14T04:34:53.117Z,1018.48
2018-02-14T04:35:53.124Z,1018.48
2018-02-14T04:36:53.128Z,1018.5
2018-02-14T04:37:53.191Z,1018.54
2018-02-14T04:38:53.153Z,1018.57
2018-02-14T04:39:53.133Z,1018.58
2018-02-14T04:40:53.142Z,1018.55
2018-02-14T04:41:53.138Z,1018.6
2018-02-14T04:44:53.272Z,1018.57
2018-02-14T04:45:53.143Z,1018.61
2018-02-14T04:46:53.151Z,1018.6
2018-02-14T04:47:53.153Z,1018.64
2018-02-14T04:48:53.162Z,1018.64
2018-02-14T04:49:53.212Z,1018.67
2018-02-14T04:50:53.171Z,1018.72
2018-02-14T04:51:53.172Z,1018.73
2018-02-14T04:52:53.184Z,1018.73
2018-02-14T04:53:53.179Z,1018.74
2018-02-14T04:54:53.226Z,1018.73
2018-02-14T04:55:53.187Z,1018.76
2018-02-14T04:56:53.188Z,1018.74
2018-02-14T04:57:53.223Z,1018.82
2018-02-14T04:58:53.197Z,1018.8
2018-02-14T04:59:53.200Z,1018.84
2018-02-14T05:00:53.232Z,1018.82
2018-02-14T05:01:53.222Z,1018.81
2018-02-14T05:02:53.214Z,1018.88
2018-02-14T05:03:53.214Z,1018.89
2018-02-14T05:04:53.222Z,1018.88
2018-02-14T05:05:53.249Z,1018.89
2018-02-14T05:06:53.259Z,1018.94
2018-02-14T05:07:53.345Z,1018.94
2018-02-14T05:08:53.296Z,1018.94
2018-02-14T05:10:06.333Z,1018.91
2018-02-14T05:10:58.453Z,1018.95
2018-02-14T05:11:58.257Z,1018.92
2018-02-14T05:12:58.258Z,1018.95
2018-02-14T05:14:03.259Z,1018.99
2018-02-14T05:14:59.374Z,1019
2018-02-14T05:16:03.298Z,1018.99
2018-02-14T05:17:03.264Z,1019.03
2018-02-14T05:18:06.962Z,1019.06
2018-02-14T05:19:03.258Z,1019.05
2018-02-14T05:19:53.289Z,1019.1
2018-02-14T05:20:53.281Z,1019.08
2018-02-14T05:21:53.303Z,1019.09
2018-02-14T05:22:53.271Z,1019.12
2018-02-14T05:23:53.279Z,1019.14
2018-02-14T05:24:53.285Z,1019.12
2018-02-14T05:25:53.291Z,1019.09
2018-02-14T05:26:53.321Z,1019.18
2018-02-14T05:27:53.293Z,1019.17
2018-02-14T05:28:53.300Z,1019.16
2018-02-14T05:29:53.304Z,1019.22
2018-02-14T05:30:53.762Z,1019.25
2018-02-14T05:31:53.329Z,1019.23
2018-02-14T05:32:53.346Z,1019.22
2018-02-14T05:33:53.320Z,1019.25
2018-02-14T05:34:53.332Z,1019.23
2018-02-14T05:35:53.337Z,1019.26
2018-02-14T05:36:53.322Z,1019.2
2018-02-14T05:37:53.343Z,1019.27
2018-02-14T05:38:53.356Z,1019.26
2018-02-14T05:39:53.333Z,1019.26
2018-02-14T05:40:53.338Z,1019.25
2018-02-14T05:41:53.341Z,1019.29
2018-02-14T05:42:53.351Z,1019.28
2018-02-14T05:43:53.348Z,1019.33
2018-02-14T05:44:53.357Z,1019.34
2018-02-14T05:45:53.366Z,1019.33
2018-02-14T05:46:53.370Z,1019.36
2018-02-14T05:47:53.377Z,1019.41
2018-02-14T05:48:53.378Z,1019.43
2018-02-14T05:49:53.368Z,1019.41
2018-02-14T05:50:53.367Z,1019.43
2018-02-14T05:51:53.364Z,1019.49
2018-02-14T05:52:53.372Z,1019.49
2018-02-14T05:53:53.373Z,1019.52
2018-02-14T05:54:53.395Z,1019.51
2018-02-14T05:55:53.371Z,1019.55
2018-02-14T05:56:53.402Z,1019.54
2018-02-14T05:57:53.389Z,1019.6
2018-02-14T05:58:53.396Z,1019.58
2018-02-14T05:59:53.399Z,1019.64
2018-02-14T06:00:53.393Z,1019.61
2018-02-14T06:01:53.417Z,1019.62
2018-02-14T06:02:53.396Z,1019.6
2018-02-14T06:03:53.403Z,1019.66
2018-02-14T06:04:53.411Z,1019.69
2018-02-14T06:05:53.456Z,1019.67
2018-02-14T06:06:53.438Z,1019.65
2018-02-14T06:07:53.410Z,1019.69
2018-02-14T06:08:53.458Z,1019.71
2018-02-14T06:09:53.419Z,1019.74
2018-02-14T06:10:53.425Z,1019.75
2018-02-14T06:11:53.421Z,1019.82
2018-02-14T06:12:53.444Z,1019.8
2018-02-14T06:13:53.459Z,1019.86
2018-02-14T06:14:53.440Z,1019.85
2018-02-14T06:15:53.431Z,1019.88
2018-02-14T06:16:53.441Z,1019.88
2018-02-14T06:17:53.436Z,1019.91
2018-02-14T06:18:53.481Z,1019.91
2018-02-14T06:19:53.472Z,1019.9
2018-02-14T06:20:53.459Z,1019.96
2018-02-14T06:21:53.481Z,1020
2018-02-14T06:22:53.469Z,1020
2018-02-14T06:23:53.491Z,1020.02
2018-02-14T06:24:53.467Z,1020.06
2018-02-14T06:25:53.475Z,1020.07
2018-02-14T06:26:53.475Z,1020.1
2018-02-14T06:27:53.541Z,1020.14
2018-02-14T06:28:53.511Z,1020.09
2018-02-14T06:29:53.489Z,1020.14
2018-02-14T06:30:53.492Z,1020.15
2018-02-14T06:31:53.489Z,1020.13
2018-02-14T06:32:53.494Z,1020.19
2018-02-14T06:33:53.519Z,1020.22
2018-02-14T06:34:53.504Z,1020.18
2018-02-14T06:35:53.496Z,1020.22
2018-02-14T06:36:53.503Z,1020.22
2018-02-14T06:37:53.505Z,1020.28
2018-02-14T06:38:53.551Z,1020.24
2018-02-14T06:39:53.511Z,1020.29
2018-02-14T06:40:53.846Z,1020.29
2018-02-14T06:41:53.504Z,1020.26
2018-02-14T06:42:53.510Z,1020.29
2018-02-14T06:43:53.513Z,1020.32
2018-02-14T06:44:53.554Z,1020.27
2018-02-14T06:45:53.556Z,1020.28
2018-02-14T06:46:53.547Z,1020.3
2018-02-14T06:47:53.539Z,1020.31
2018-02-14T06:48:53.530Z,1020.3
2018-02-14T06:49:53.533Z,1020.3
2018-02-14T06:50:53.567Z,1020.31
2018-02-14T06:51:53.569Z,1020.36
2018-02-14T06:52:53.559Z,1020.32
2018-02-14T06:53:53.558Z,1020.38
2018-02-14T06:54:53.553Z,1020.37
2018-02-14T06:55:53.572Z,1020.39
2018-02-14T06:56:53.582Z,1020.39
2018-02-14T06:57:53.584Z,1020.41
2018-02-14T06:58:53.665Z,1020.42
2018-02-14T06:59:53.583Z,1020.43
2018-02-14T07:00:53.616Z,1020.4
2018-02-14T07:01:53.640Z,1020.45
2018-02-14T07:02:53.593Z,1020.42
2018-02-14T07:03:53.598Z,1020.41
2018-02-14T07:04:53.595Z,1020.47
2018-02-14T07:05:53.908Z,1020.47
2018-02-14T07:06:53.604Z,1020.5
2018-02-14T07:07:53.685Z,1020.47
2018-02-14T07:08:53.619Z,1020.51
2018-02-14T07:09:53.623Z,1020.53
2018-02-14T07:10:53.664Z,1020.53
2018-02-14T07:11:53.630Z,1020.54
2018-02-14T07:12:53.635Z,1020.54
2018-02-14T07:13:53.643Z,1020.54
2018-02-14T07:14:53.636Z,1020.56
2018-02-14T07:15:53.656Z,1020.57
2018-02-14T07:16:53.666Z,1020.54
2018-02-14T07:17:53.632Z,1020.57
2018-02-14T07:18:53.635Z,1020.59
2018-02-14T07:19:53.639Z,1020.57
2018-02-14T07:20:53.656Z,1020.58
2018-02-14T07:21:53.678Z,1020.65
2018-02-14T07:22:54.035Z,1020.65
2018-02-14T07:23:53.661Z,1020.67
2018-02-14T07:24:53.666Z,1020.68
2018-02-14T07:25:53.674Z,1020.69
2018-02-14T07:26:53.675Z,1020.69
2018-02-14T07:27:53.712Z,1020.68
2018-02-14T07:28:53.682Z,1020.68
2018-02-14T07:29:53.681Z,1020.7
2018-02-14T07:30:53.687Z,1020.67
2018-02-14T07:31:53.713Z,1020.68
2018-02-14T07:32:53.707Z,1020.68
2018-02-14T07:33:53.861Z,1020.65
2018-02-14T07:34:53.704Z,1020.65
2018-02-14T07:35:53.709Z,1020.67
2018-02-14T07:36:53.717Z,1020.66
2018-02-14T07:37:53.707Z,1020.66
2018-02-14T07:38:53.732Z,1020.64
2018-02-14T07:39:53.738Z,1020.63
2018-02-14T07:40:53.721Z,1020.7
2018-02-14T07:41:53.733Z,1020.68
2018-02-14T07:42:53.717Z,1020.68
2018-02-14T07:43:53.745Z,1020.67
2018-02-14T07:44:53.735Z,1020.69
2018-02-14T07:45:53.739Z,1020.71
2018-02-14T07:46:53.744Z,1020.72
2018-02-14T07:47:53.743Z,1020.74
2018-02-14T07:48:53.759Z,1020.68
2018-02-14T07:49:53.769Z,1020.72
2018-02-14T07:50:53.748Z,1020.78
2018-02-14T07:51:53.756Z,1020.79
2018-02-14T07:52:53.757Z,1020.81
2018-02-14T07:53:53.770Z,1020.8
2018-02-14T07:56:58.792Z,1020.92
2018-02-14T07:57:53.781Z,1020.86
2018-02-14T07:58:53.806Z,1020.9
2018-02-14T07:59:53.812Z,1020.88
2018-02-14T08:00:53.790Z,1020.91
2018-02-14T08:01:53.781Z,1020.91
2018-02-14T08:02:53.786Z,1020.93
2018-02-14T08:03:53.817Z,1020.94
2018-02-14T08:04:54.343Z,1020.94
2018-02-14T08:05:53.810Z,1021
2018-02-14T08:06:53.813Z,1020.99
2018-02-14T08:07:53.846Z,1021.02
2018-02-14T08:08:53.810Z,1021
2018-02-14T08:09:54.143Z,1021.03
2018-02-14T08:10:53.817Z,1021.01
2018-02-14T08:11:53.821Z,1021.05
2018-02-14T08:12:53.827Z,1021.03
2018-02-14T08:13:53.820Z,1021.06
2018-02-14T08:14:53.848Z,1021.08
2018-02-14T08:15:53.837Z,1021.02
2018-02-14T08:16:53.822Z,1021.07
2018-02-14T08:17:53.829Z,1021.06
2018-02-14T08:18:53.831Z,1021.06
2018-02-14T08:19:53.840Z,1021.09
2018-02-14T08:20:54.083Z,1021.08
2018-02-14T08:21:53.836Z,1021.12
2018-02-14T08:22:53.831Z,1021.1
2018-02-14T08:23:53.844Z,1021.14
2018-02-14T08:24:53.844Z,1021.17
2018-02-14T08:25:53.867Z,1021.22
2018-02-14T08:26:53.876Z,1021.22
2018-02-14T08:27:53.852Z,1021.21
2018-02-14T08:28:53.926Z,1021.27
2018-02-14T08:29:53.852Z,1021.26
2018-02-14T08:30:53.857Z,1021.25
2018-02-14T08:31:53.899Z,1021.29
2018-02-14T08:32:53.861Z,1021.25
2018-02-14T08:33:53.854Z,1021.26
2018-02-14T08:34:53.863Z,1021.31
2018-02-14T08:35:53.863Z,1021.29
2018-02-14T08:36:53.891Z,1021.29
2018-02-14T08:37:53.907Z,1021.31
2018-02-14T08:38:53.871Z,1021.34
2018-02-14T08:39:53.869Z,1021.29
2018-02-14T08:40:53.878Z,1021.29
2018-02-14T08:41:53.882Z,1021.33
2018-02-14T08:42:54.031Z,1021.35
2018-02-14T08:43:53.882Z,1021.35
2018-02-14T08:44:53.891Z,1021.39
2018-02-14T08:45:53.893Z,1021.36
2018-02-14T08:46:53.905Z,1021.39
2018-02-14T08:47:54.091Z,1021.41
2018-02-14T08:48:53.903Z,1021.4
2018-02-14T08:49:53.897Z,1021.38
2018-02-14T08:50:53.904Z,1021.39
2018-02-14T08:51:53.899Z,1021.37
2018-02-14T08:52:53.919Z,1021.36
2018-02-14T08:53:53.934Z,1021.41
2018-02-14T08:54:53.920Z,1021.34
2018-02-14T08:55:53.915Z,1021.38
2018-02-14T08:56:53.919Z,1021.39
2018-02-14T08:57:53.954Z,1021.36
2018-02-14T08:58:53.937Z,1021.41
2018-02-14T08:59:53.916Z,1021.38
2018-02-14T09:00:53.927Z,1021.4
2018-02-14T09:01:53.928Z,1021.42
2018-02-14T09:02:54.009Z,1021.42
2018-02-14T09:03:53.931Z,1021.44
2018-02-14T09:04:53.935Z,1021.44
2018-02-14T09:05:53.944Z,1021.43
2018-02-14T09:06:53.940Z,1021.42
2018-02-14T09:07:53.934Z,1021.43
2018-02-14T09:08:53.965Z,1021.43
2018-02-14T09:09:53.955Z,1021.49
2018-02-14T09:10:53.955Z,1021.51
2018-02-14T09:11:53.961Z,1021.45
2018-02-14T09:12:53.962Z,1021.49
2018-02-14T09:13:54.013Z,1021.43
2018-02-14T09:14:53.971Z,1021.45
2018-02-14T09:15:53.966Z,1021.4
2018-02-14T09:16:54.021Z,1021.41
2018-02-14T09:17:53.986Z,1021.44
2018-02-14T09:18:54.000Z,1021.41
2018-02-14T09:19:54.015Z,1021.42
2018-02-14T09:20:53.989Z,1021.43
2018-02-14T09:21:54.008Z,1021.39
2018-02-14T09:22:53.999Z,1021.44
2018-02-14T09:23:54.013Z,1021.4
2018-02-14T09:24:54.032Z,1021.41
2018-02-14T09:25:54.458Z,1021.46
2018-02-14T09:26:54.019Z,1021.51
2018-02-14T09:27:54.025Z,1021.47
2018-02-14T09:28:54.011Z,1021.53
2018-02-14T09:29:54.047Z,1021.52
2018-02-14T09:30:54.026Z,1021.54
2018-02-14T09:31:54.053Z,1021.59
2018-02-14T09:32:54.030Z,1021.56
2018-02-14T09:33:54.030Z,1021.58
2018-02-14T09:34:54.323Z,1021.61
2018-02-14T09:35:54.041Z,1021.62
2018-02-14T09:36:54.051Z,1021.64
2018-02-14T09:37:54.051Z,1021.67
2018-02-14T09:38:54.059Z,1021.64
2018-02-14T09:39:54.060Z,1021.65
2018-02-14T09:40:54.063Z,1021.66
2018-02-14T09:41:54.057Z,1021.63
2018-02-14T09:42:54.064Z,1021.59
2018-02-14T09:43:54.061Z,1021.62
2018-02-14T09:44:54.076Z,1021.6
2018-02-14T09:45:54.072Z,1021.57
2018-02-14T09:46:54.058Z,1021.58
2018-02-14T09:47:54.062Z,1021.56
2018-02-14T09:48:54.065Z,1021.55
2018-02-14T09:49:54.072Z,1021.62
2018-02-14T09:50:54.071Z,1021.62
2018-02-14T09:51:54.099Z,1021.59
2018-02-14T09:52:54.088Z,1021.61
2018-02-14T09:53:54.089Z,1021.63
2018-02-14T09:54:54.131Z,1021.63
2018-02-14T09:55:54.110Z,1021.64
2018-02-14T09:56:54.110Z,1021.57
2018-02-14T09:57:54.103Z,1021.59
2018-02-14T09:58:54.129Z,1021.55
2018-02-14T09:59:54.148Z,1021.56
2018-02-14T10:00:54.128Z,1021.59
2018-02-14T10:01:54.129Z,1021.6
2018-02-14T10:02:54.127Z,1021.64
2018-02-14T10:03:54.171Z,1021.68
2018-02-14T10:04:54.138Z,1021.66
2018-02-14T10:05:54.134Z,1021.72
2018-02-14T10:06:54.144Z,1021.7
2018-02-14T10:07:54.148Z,1021.66
2018-02-14T10:08:54.171Z,1021.66
2018-02-14T10:09:54.177Z,1021.66
2018-02-14T10:10:54.156Z,1021.63
2018-02-14T10:11:54.180Z,1021.6
2018-02-14T10:12:54.170Z,1021.63
2018-02-14T10:13:54.200Z,1021.64
2018-02-14T10:14:54.213Z,1021.62
2018-02-14T10:15:54.180Z,1021.64
2018-02-14T10:16:54.195Z,1021.66
2018-02-14T10:17:54.203Z,1021.68
2018-02-14T10:18:54.220Z,1021.65
2018-02-14T10:19:54.194Z,1021.67
2018-02-14T10:20:54.202Z,1021.65
2018-02-14T10:21:54.207Z,1021.66
2018-02-14T10:22:54.216Z,1021.67
2018-02-14T10:23:54.238Z,1021.7
2018-02-14T10:24:54.255Z,1021.73
2018-02-14T10:25:54.219Z,1021.72
2018-02-14T10:26:54.226Z,1021.73
2018-02-14T10:27:54.232Z,1021.72
2018-02-14T10:28:54.286Z,1021.71
2018-02-14T10:29:54.245Z,1021.71
2018-02-14T10:30:54.245Z,1021.66
2018-02-14T10:31:54.247Z,1021.67
2018-02-14T10:32:54.249Z,1021.67
2018-02-14T10:33:54.266Z,1021.73
2018-02-14T10:34:54.270Z,1021.73
2018-02-14T10:35:54.280Z,1021.79
2018-02-14T10:36:54.241Z,1021.76
2018-02-14T10:37:54.242Z,1021.83
2018-02-14T10:38:54.264Z,1021.8
2018-02-14T10:39:54.279Z,1021.79
2018-02-14T10:40:54.255Z,1021.77
2018-02-14T10:41:54.279Z,1021.73
2018-02-14T10:42:54.269Z,1021.72
2018-02-14T10:43:54.309Z,1021.74
2018-02-14T10:44:54.297Z,1021.72
2018-02-14T10:45:54.304Z,1021.7
2018-02-14T10:46:54.285Z,1021.73
2018-02-14T10:47:54.297Z,1021.74
2018-02-14T10:48:54.292Z,1021.8
2018-02-14T10:49:54.305Z,1021.82
2018-02-14T10:50:54.638Z,1021.81
2018-02-14T10:51:54.346Z,1021.85
2018-02-14T10:52:54.407Z,1021.81
2018-02-14T10:53:54.297Z,1021.82
2018-02-14T10:54:54.304Z,1021.78
2018-02-14T10:55:54.336Z,1021.79
2018-02-14T10:56:54.566Z,1021.72
2018-02-14T10:57:54.324Z,1021.73
2018-02-14T10:58:54.329Z,1021.73
2018-02-14T10:59:54.394Z,1021.72
2018-02-14T11:00:56.981Z,1021.72
2018-02-14T11:01:55.564Z,1021.67
2018-02-14T11:02:54.427Z,1021.68
2018-02-14T11:03:54.387Z,1021.68
2018-02-14T11:04:54.339Z,1021.65
2018-02-14T11:05:54.346Z,1021.65
2018-02-14T11:06:54.348Z,1021.61
2018-02-14T11:07:54.341Z,1021.56
2018-02-14T11:08:54.340Z,1021.56
2018-02-14T11:09:54.370Z,1021.58
2018-02-14T11:10:54.357Z,1021.52
2018-02-14T11:11:54.397Z,1021.51
2018-02-14T11:12:54.360Z,1021.52
2018-02-14T11:13:54.368Z,1021.53
2018-02-14T11:14:54.371Z,1021.5
2018-02-14T11:15:54.361Z,1021.46
2018-02-14T11:16:54.384Z,1021.51
2018-02-14T11:17:54.359Z,1021.54
2018-02-14T11:18:54.369Z,1021.5
2018-02-14T11:19:54.362Z,1021.55
2018-02-14T11:20:54.369Z,1021.54
2018-02-14T11:21:54.390Z,1021.52
2018-02-14T11:22:54.370Z,1021.45
2018-02-14T11:23:54.393Z,1021.43
2018-02-14T11:24:54.381Z,1021.43
2018-02-14T11:25:54.376Z,1021.4
2018-02-14T11:26:54.379Z,1021.39
2018-02-14T11:27:54.375Z,1021.41
2018-02-14T11:28:54.389Z,1021.36
2018-02-14T11:45:29.523Z,1021.38
2018-02-14T11:46:29.416Z,1021.37
2018-02-14T11:47:29.416Z,1021.35
2018-02-14T11:48:29.435Z,1021.36
2018-02-14T11:49:29.428Z,1021.33
2018-02-14T11:50:29.412Z,1021.41
2018-02-14T11:51:29.406Z,1021.4
2018-02-14T11:52:29.409Z,1021.37
2018-02-14T11:53:29.442Z,1021.34
2018-02-14T11:54:29.429Z,1021.33
2018-02-14T11:55:29.422Z,1021.35
2018-02-14T11:56:33.049Z,1021.37
2018-02-14T11:57:33.075Z,1021.32
2018-02-14T11:58:34.890Z,1021.3
2018-02-14T11:59:35.699Z,1021.32
2018-02-14T12:00:34.078Z,1021.32
2018-02-14T12:01:35.515Z,1021.32
2018-02-14T12:02:33.870Z,1021.31
2018-02-14T12:03:33.102Z,1021.3
2018-02-14T12:04:33.092Z,1021.27
2018-02-14T12:05:33.098Z,1021.3
2018-02-14T12:06:33.105Z,1021.29
2018-02-14T12:07:33.115Z,1021.28
2018-02-14T12:08:33.111Z,1021.28
2018-02-14T12:09:33.116Z,1021.25
2018-02-14T12:10:33.120Z,1021.24
2018-02-14T12:11:33.130Z,1021.24
2018-02-14T12:12:33.121Z,1021.25
2018-02-14T12:13:33.123Z,1021.27
2018-02-14T12:14:33.133Z,1021.28
2018-02-14T12:15:33.148Z,1021.31
2018-02-14T12:16:33.141Z,1021.24
2018-02-14T12:17:33.149Z,1021.23
2018-02-14T12:18:33.139Z,1021.22
2018-02-14T12:19:33.146Z,1021.24
2018-02-14T12:20:33.140Z,1021.21
2018-02-14T12:21:33.146Z,1021.14
2018-02-14T12:31:11.914Z,1021.18
2018-02-14T12:32:11.896Z,1021.19
2018-02-14T12:33:12.053Z,1021.17
2018-02-14T12:34:11.878Z,1021.2
2018-02-14T12:35:11.894Z,1021.13
2018-02-14T12:38:24.077Z,1021.13
2018-02-14T12:39:12.065Z,1021.07
2018-02-14T12:40:12.086Z,1021.08